sensor_id;sensor_type;location;lat;lon;timestamp;P1;durP1;ratioP1;P2;durP2;ratioP2
66628;SDS011;53532;53.084;6.352;2023-04-15T00:01:21;14.10;;;8.40;;
66628;SDS011;53532;53.084;6.352;2023-04-15T00:03:49;14.60;;;7.90;;
66628;SDS011;53532;53.084;6.352;2023-04-15T00:06:16;13.80;;;7.30;;
66628;SDS011;53532;53.084;6.352;2023-04-15T00:08:43;14.00;;;7.83;;
66628;SDS011;53532;53.084;6.352;2023-04-15T00:11:09;16.88;;;8.52;;
66628;SDS011;53532;53.084;6.352;2023-04-15T00:13:36;12.80;;;8.05;;
66628;SDS011;53532;53.084;6.352;2023-04-15T00:16:05;14.48;;;7.88;;
66628;SDS011;53532;53.084;6.352;2023-04-15T00:18:32;17.23;;;8.20;;
66628;SDS011;53532;53.084;6.352;2023-04-15T00:20:58;16.00;;;8.60;;
66628;SDS011;53532;53.084;6.352;2023-04-15T00:23:25;14.38;;;8.45;;
66628;SDS011;53532;53.084;6.352;2023-04-15T00:25:51;14.77;;;8.55;;
66628;SDS011;53532;53.084;6.352;2023-04-15T00:28:17;15.50;;;8.40;;
66628;SDS011;53532;53.084;6.352;2023-04-15T00:30:43;16.60;;;8.80;;
66628;SDS011;53532;53.084;6.352;2023-04-15T00:33:11;16.90;;;8.90;;
66628;SDS011;53532;53.084;6.352;2023-04-15T00:35:37;15.60;;;9.30;;
66628;SDS011;53532;53.084;6.352;2023-04-15T00:38:04;16.20;;;9.23;;
66628;SDS011;53532;53.084;6.352;2023-04-15T00:40:31;17.13;;;9.73;;
66628;SDS011;53532;53.084;6.352;2023-04-15T00:42:57;16.98;;;10.05;;
66628;SDS011;53532;53.084;6.352;2023-04-15T00:45:24;16.10;;;9.37;;
66628;SDS011;53532;53.084;6.352;2023-04-15T00:47:52;16.92;;;9.93;;
66628;SDS011;53532;53.084;6.352;2023-04-15T00:50:19;17.23;;;9.60;;
66628;SDS011;53532;53.084;6.352;2023-04-15T00:52:46;17.67;;;10.50;;
66628;SDS011;53532;53.084;6.352;2023-04-15T00:55:12;18.35;;;10.10;;
66628;SDS011;53532;53.084;6.352;2023-04-15T00:57:38;18.23;;;10.63;;
66628;SDS011;53532;53.084;6.352;2023-04-15T01:00:05;16.87;;;10.93;;
66628;SDS011;53532;53.084;6.352;2023-04-15T01:02:33;16.97;;;11.53;;
66628;SDS011;53532;53.084;6.352;2023-04-15T01:04:59;18.17;;;11.63;;
66628;SDS011;53532;53.084;6.352;2023-04-15T01:07:26;18.63;;;11.70;;
66628;SDS011;53532;53.084;6.352;2023-04-15T01:09:53;19.35;;;11.98;;
66628;SDS011;53532;53.084;6.352;2023-04-15T01:12:19;19.60;;;12.00;;
66628;SDS011;53532;53.084;6.352;2023-04-15T01:14:45;18.37;;;11.83;;
66628;SDS011;53532;53.084;6.352;2023-04-15T01:17:12;17.63;;;11.83;;
66628;SDS011;53532;53.084;6.352;2023-04-15T01:19:38;18.30;;;12.70;;
66628;SDS011;53532;53.084;6.352;2023-04-15T01:22:04;19.35;;;12.35;;
66628;SDS011;53532;53.084;6.352;2023-04-15T01:24:32;22.13;;;12.57;;
66628;SDS011;53532;53.084;6.352;2023-04-15T01:27:00;20.15;;;13.13;;
66628;SDS011;53532;53.084;6.352;2023-04-15T01:29:26;22.27;;;14.38;;
66628;SDS011;53532;53.084;6.352;2023-04-15T01:31:53;18.97;;;13.23;;
66628;SDS011;53532;53.084;6.352;2023-04-15T01:34:19;23.20;;;14.85;;
66628;SDS011;53532;53.084;6.352;2023-04-15T01:36:46;22.17;;;14.23;;
66628;SDS011;53532;53.084;6.352;2023-04-15T01:39:12;22.60;;;15.30;;
66628;SDS011;53532;53.084;6.352;2023-04-15T01:41:39;21.50;;;14.90;;
66628;SDS011;53532;53.084;6.352;2023-04-15T01:44:07;21.33;;;15.43;;
66628;SDS011;53532;53.084;6.352;2023-04-15T01:46:34;21.10;;;14.63;;
66628;SDS011;53532;53.084;6.352;2023-04-15T01:49:00;20.03;;;14.27;;
66628;SDS011;53532;53.084;6.352;2023-04-15T01:51:26;22.37;;;15.10;;
66628;SDS011;53532;53.084;6.352;2023-04-15T01:53:52;24.50;;;16.30;;
66628;SDS011;53532;53.084;6.352;2023-04-15T01:56:21;21.00;;;15.27;;
66628;SDS011;53532;53.084;6.352;2023-04-15T01:58:48;21.83;;;15.80;;
66628;SDS011;53532;53.084;6.352;2023-04-15T02:01:16;22.30;;;16.00;;
66628;SDS011;53532;53.084;6.352;2023-04-15T02:03:43;24.23;;;15.27;;
66628;SDS011;53532;53.084;6.352;2023-04-15T02:06:10;24.17;;;16.53;;
66628;SDS011;53532;53.084;6.352;2023-04-15T02:08:37;22.57;;;16.50;;
66628;SDS011;53532;53.084;6.352;2023-04-15T02:11:03;20.37;;;15.40;;
66628;SDS011;53532;53.084;6.352;2023-04-15T02:13:29;20.50;;;16.00;;
66628;SDS011;53532;53.084;6.352;2023-04-15T02:15:55;22.40;;;16.13;;
66628;SDS011;53532;53.084;6.352;2023-04-15T02:18:23;25.10;;;15.23;;
66628;SDS011;53532;53.084;6.352;2023-04-15T02:20:50;24.83;;;15.73;;
66628;SDS011;53532;53.084;6.352;2023-04-15T02:23:16;20.27;;;14.60;;
66628;SDS011;53532;53.084;6.352;2023-04-15T02:25:42;24.97;;;15.47;;
66628;SDS011;53532;53.084;6.352;2023-04-15T02:28:08;23.17;;;15.60;;
66628;SDS011;53532;53.084;6.352;2023-04-15T02:30:34;21.90;;;15.67;;
66628;SDS011;53532;53.084;6.352;2023-04-15T02:33:01;21.80;;;15.47;;
66628;SDS011;53532;53.084;6.352;2023-04-15T02:35:28;22.37;;;15.43;;
66628;SDS011;53532;53.084;6.352;2023-04-15T02:37:54;20.20;;;14.30;;
66628;SDS011;53532;53.084;6.352;2023-04-15T02:40:21;21.47;;;15.23;;
66628;SDS011;53532;53.084;6.352;2023-04-15T02:42:47;21.63;;;15.67;;
66628;SDS011;53532;53.084;6.352;2023-04-15T02:45:13;23.87;;;15.97;;
66628;SDS011;53532;53.084;6.352;2023-04-15T02:47:40;21.53;;;15.23;;
66628;SDS011;53532;53.084;6.352;2023-04-15T02:50:07;19.93;;;14.57;;
66628;SDS011;53532;53.084;6.352;2023-04-15T02:52:37;23.17;;;16.37;;
66628;SDS011;53532;53.084;6.352;2023-04-15T02:55:04;23.30;;;16.33;;
66628;SDS011;53532;53.084;6.352;2023-04-15T02:57:30;22.50;;;15.60;;
66628;SDS011;53532;53.084;6.352;2023-04-15T02:59:58;22.57;;;15.33;;
66628;SDS011;53532;53.084;6.352;2023-04-15T03:02:24;21.47;;;15.53;;
66628;SDS011;53532;53.084;6.352;2023-04-15T03:04:50;22.33;;;16.13;;
66628;SDS011;53532;53.084;6.352;2023-04-15T03:07:17;22.70;;;16.70;;
66628;SDS011;53532;53.084;6.352;2023-04-15T03:09:45;22.67;;;16.63;;
66628;SDS011;53532;53.084;6.352;2023-04-15T03:12:12;23.57;;;17.00;;
66628;SDS011;53532;53.084;6.352;2023-04-15T03:14:38;24.40;;;16.27;;
66628;SDS011;53532;53.084;6.352;2023-04-15T03:17:04;23.47;;;16.37;;
66628;SDS011;53532;53.084;6.352;2023-04-15T03:19:30;22.13;;;15.87;;
66628;SDS011;53532;53.084;6.352;2023-04-15T03:21:56;23.87;;;16.27;;
66628;SDS011;53532;53.084;6.352;2023-04-15T03:24:22;23.00;;;16.47;;
66628;SDS011;53532;53.084;6.352;2023-04-15T03:26:50;23.13;;;16.47;;
66628;SDS011;53532;53.084;6.352;2023-04-15T03:29:16;24.43;;;16.73;;
66628;SDS011;53532;53.084;6.352;2023-04-15T03:31:42;22.13;;;15.93;;
66628;SDS011;53532;53.084;6.352;2023-04-15T03:34:08;22.90;;;16.33;;
66628;SDS011;53532;53.084;6.352;2023-04-15T03:36:35;22.30;;;16.27;;
66628;SDS011;53532;53.084;6.352;2023-04-15T03:39:01;24.23;;;16.10;;
66628;SDS011;53532;53.084;6.352;2023-04-15T03:41:28;22.23;;;16.33;;
66628;SDS011;53532;53.084;6.352;2023-04-15T03:43:56;23.67;;;16.30;;
66628;SDS011;53532;53.084;6.352;2023-04-15T03:46:22;22.43;;;16.60;;
66628;SDS011;53532;53.084;6.352;2023-04-15T03:48:48;24.80;;;17.40;;
66628;SDS011;53532;53.084;6.352;2023-04-15T03:51:14;25.67;;;17.93;;
66628;SDS011;53532;53.084;6.352;2023-04-15T03:53:41;26.80;;;17.80;;
66628;SDS011;53532;53.084;6.352;2023-04-15T03:56:07;23.83;;;16.90;;
66628;SDS011;53532;53.084;6.352;2023-04-15T03:58:33;25.00;;;17.87;;
66628;SDS011;53532;53.084;6.352;2023-04-15T04:01:01;26.63;;;18.30;;
66628;SDS011;53532;53.084;6.352;2023-04-15T04:03:27;27.43;;;18.60;;
66628;SDS011;53532;53.084;6.352;2023-04-15T04:05:53;25.43;;;18.47;;
66628;SDS011;53532;53.084;6.352;2023-04-15T04:08:19;28.40;;;19.50;;
66628;SDS011;53532;53.084;6.352;2023-04-15T04:10:46;27.60;;;19.33;;
66628;SDS011;53532;53.084;6.352;2023-04-15T04:13:12;29.37;;;19.97;;
66628;SDS011;53532;53.084;6.352;2023-04-15T04:15:38;29.33;;;20.40;;
66628;SDS011;53532;53.084;6.352;2023-04-15T04:18:06;32.00;;;21.77;;
66628;SDS011;53532;53.084;6.352;2023-04-15T04:20:32;30.37;;;21.20;;
66628;SDS011;53532;53.084;6.352;2023-04-15T04:22:58;27.97;;;19.83;;
66628;SDS011;53532;53.084;6.352;2023-04-15T04:25:24;25.13;;;18.23;;
66628;SDS011;53532;53.084;6.352;2023-04-15T04:27:51;26.97;;;18.70;;
66628;SDS011;53532;53.084;6.352;2023-04-15T04:30:17;21.67;;;16.03;;
66628;SDS011;53532;53.084;6.352;2023-04-15T04:32:43;22.30;;;16.17;;
66628;SDS011;53532;53.084;6.352;2023-04-15T04:35:11;22.87;;;15.40;;
66628;SDS011;53532;53.084;6.352;2023-04-15T04:37:37;22.33;;;15.80;;
66628;SDS011;53532;53.084;6.352;2023-04-15T04:40:04;21.27;;;15.50;;
66628;SDS011;53532;53.084;6.352;2023-04-15T04:42:30;21.30;;;16.30;;
66628;SDS011;53532;53.084;6.352;2023-04-15T04:44:57;22.93;;;16.30;;
66628;SDS011;53532;53.084;6.352;2023-04-15T04:47:23;27.00;;;18.40;;
66628;SDS011;53532;53.084;6.352;2023-04-15T04:49:49;27.03;;;18.90;;
66628;SDS011;53532;53.084;6.352;2023-04-15T04:52:16;31.27;;;21.70;;
66628;SDS011;53532;53.084;6.352;2023-04-15T04:54:42;31.70;;;21.97;;
66628;SDS011;53532;53.084;6.352;2023-04-15T04:57:09;34.33;;;21.27;;
66628;SDS011;53532;53.084;6.352;2023-04-15T04:59:37;34.63;;;22.20;;
66628;SDS011;53532;53.084;6.352;2023-04-15T05:02:03;40.07;;;24.23;;
66628;SDS011;53532;53.084;6.352;2023-04-15T05:04:30;37.50;;;23.33;;
66628;SDS011;53532;53.084;6.352;2023-04-15T05:06:56;33.80;;;22.10;;
66628;SDS011;53532;53.084;6.352;2023-04-15T05:09:24;29.37;;;19.10;;
66628;SDS011;53532;53.084;6.352;2023-04-15T05:11:51;27.77;;;18.30;;
66628;SDS011;53532;53.084;6.352;2023-04-15T05:14:17;34.87;;;20.23;;
66628;SDS011;53532;53.084;6.352;2023-04-15T05:16:43;31.57;;;21.27;;
66628;SDS011;53532;53.084;6.352;2023-04-15T05:19:09;29.00;;;19.63;;
66628;SDS011;53532;53.084;6.352;2023-04-15T05:21:35;29.77;;;19.40;;
66628;SDS011;53532;53.084;6.352;2023-04-15T05:24:02;33.23;;;22.27;;
66628;SDS011;53532;53.084;6.352;2023-04-15T05:26:30;33.03;;;22.60;;
66628;SDS011;53532;53.084;6.352;2023-04-15T05:28:56;34.43;;;22.70;;
66628;SDS011;53532;53.084;6.352;2023-04-15T05:31:22;36.40;;;24.33;;
66628;SDS011;53532;53.084;6.352;2023-04-15T05:33:48;36.10;;;24.10;;
66628;SDS011;53532;53.084;6.352;2023-04-15T05:36:14;35.47;;;23.70;;
66628;SDS011;53532;53.084;6.352;2023-04-15T05:38:41;35.60;;;24.30;;
66628;SDS011;53532;53.084;6.352;2023-04-15T05:41:07;31.83;;;22.77;;
66628;SDS011;53532;53.084;6.352;2023-04-15T05:43:35;32.07;;;23.17;;
66628;SDS011;53532;53.084;6.352;2023-04-15T05:46:01;30.47;;;22.43;;
66628;SDS011;53532;53.084;6.352;2023-04-15T05:48:27;30.67;;;22.10;;
66628;SDS011;53532;53.084;6.352;2023-04-15T05:50:53;32.00;;;22.43;;
66628;SDS011;53532;53.084;6.352;2023-04-15T05:53:19;32.03;;;22.43;;
66628;SDS011;53532;53.084;6.352;2023-04-15T05:55:46;30.50;;;22.17;;
66628;SDS011;53532;53.084;6.352;2023-04-15T05:58:12;30.13;;;21.57;;
66628;SDS011;53532;53.084;6.352;2023-04-15T06:00:39;29.07;;;21.13;;
66628;SDS011;53532;53.084;6.352;2023-04-15T06:03:05;30.17;;;21.83;;
66628;SDS011;53532;53.084;6.352;2023-04-15T06:05:31;28.47;;;21.03;;
66628;SDS011;53532;53.084;6.352;2023-04-15T06:07:58;28.90;;;21.17;;
66628;SDS011;53532;53.084;6.352;2023-04-15T06:10:25;29.87;;;21.20;;
66628;SDS011;53532;53.084;6.352;2023-04-15T06:12:51;25.43;;;19.83;;
66628;SDS011;53532;53.084;6.352;2023-04-15T06:15:18;27.65;;;20.25;;
66628;SDS011;53532;53.084;6.352;2023-04-15T06:17:45;28.07;;;19.60;;
66628;SDS011;53532;53.084;6.352;2023-04-15T06:20:11;26.97;;;19.67;;
66628;SDS011;53532;53.084;6.352;2023-04-15T06:22:38;26.00;;;19.47;;
66628;SDS011;53532;53.084;6.352;2023-04-15T06:25:05;26.70;;;19.77;;
66628;SDS011;53532;53.084;6.352;2023-04-15T06:27:33;27.83;;;20.05;;
66628;SDS011;53532;53.084;6.352;2023-04-15T06:29:59;28.10;;;20.40;;
66628;SDS011;53532;53.084;6.352;2023-04-15T06:32:25;26.93;;;19.73;;
66628;SDS011;53532;53.084;6.352;2023-04-15T06:34:53;26.23;;;19.88;;
66628;SDS011;53532;53.084;6.352;2023-04-15T06:37:19;27.17;;;19.40;;
66628;SDS011;53532;53.084;6.352;2023-04-15T06:39:45;26.58;;;19.02;;
66628;SDS011;53532;53.084;6.352;2023-04-15T06:42:12;30.83;;;18.85;;
66628;SDS011;53532;53.084;6.352;2023-04-15T06:44:38;24.25;;;17.52;;
66628;SDS011;53532;53.084;6.352;2023-04-15T06:47:04;24.38;;;17.73;;
66628;SDS011;53532;53.084;6.352;2023-04-15T06:49:30;23.52;;;17.55;;
66628;SDS011;53532;53.084;6.352;2023-04-15T06:51:59;23.23;;;17.15;;
66628;SDS011;53532;53.084;6.352;2023-04-15T06:54:25;22.30;;;16.48;;
66628;SDS011;53532;53.084;6.352;2023-04-15T06:56:51;22.88;;;15.73;;
66628;SDS011;53532;53.084;6.352;2023-04-15T06:59:18;22.23;;;15.75;;
66628;SDS011;53532;53.084;6.352;2023-04-15T07:01:44;21.63;;;15.52;;
66628;SDS011;53532;53.084;6.352;2023-04-15T07:04:10;23.35;;;15.57;;
66628;SDS011;53532;53.084;6.352;2023-04-15T07:06:36;21.70;;;14.88;;
66628;SDS011;53532;53.084;6.352;2023-04-15T07:09:04;20.38;;;15.02;;
66628;SDS011;53532;53.084;6.352;2023-04-15T07:11:30;21.08;;;15.55;;
66628;SDS011;53532;53.084;6.352;2023-04-15T07:13:56;22.17;;;15.48;;
66628;SDS011;53532;53.084;6.352;2023-04-15T07:16:22;22.60;;;15.23;;
66628;SDS011;53532;53.084;6.352;2023-04-15T07:18:49;19.63;;;14.48;;
66628;SDS011;53532;53.084;6.352;2023-04-15T07:21:15;18.60;;;13.27;;
66628;SDS011;53532;53.084;6.352;2023-04-15T07:23:41;19.33;;;14.20;;
66628;SDS011;53532;53.084;6.352;2023-04-15T07:26:08;19.17;;;13.57;;
66628;SDS011;53532;53.084;6.352;2023-04-15T07:28:35;19.92;;;13.40;;
66628;SDS011;53532;53.084;6.352;2023-04-15T07:31:01;18.58;;;13.55;;
66628;SDS011;53532;53.084;6.352;2023-04-15T07:33:27;18.45;;;12.18;;
66628;SDS011;53532;53.084;6.352;2023-04-15T07:35:53;16.52;;;11.32;;
66628;SDS011;53532;53.084;6.352;2023-04-15T07:38:20;15.88;;;11.73;;
66628;SDS011;53532;53.084;6.352;2023-04-15T07:40:47;16.13;;;11.35;;
66628;SDS011;53532;53.084;6.352;2023-04-15T07:43:15;16.00;;;10.15;;
66628;SDS011;53532;53.084;6.352;2023-04-15T07:45:41;14.38;;;8.43;;
66628;SDS011;53532;53.084;6.352;2023-04-15T07:48:07;12.45;;;8.38;;
66628;SDS011;53532;53.084;6.352;2023-04-15T07:50:33;11.73;;;8.38;;
66628;SDS011;53532;53.084;6.352;2023-04-15T07:52:59;14.20;;;8.10;;
66628;SDS011;53532;53.084;6.352;2023-04-15T07:55:25;15.23;;;8.50;;
66628;SDS011;53532;53.084;6.352;2023-04-15T07:57:51;11.88;;;8.02;;
66628;SDS011;53532;53.084;6.352;2023-04-15T08:00:19;13.25;;;8.05;;
66628;SDS011;53532;53.084;6.352;2023-04-15T08:02:45;12.38;;;7.70;;
66628;SDS011;53532;53.084;6.352;2023-04-15T08:05:12;10.45;;;7.40;;
66628;SDS011;53532;53.084;6.352;2023-04-15T08:07:39;13.02;;;8.40;;
66628;SDS011;53532;53.084;6.352;2023-04-15T08:10:05;12.00;;;7.88;;
66628;SDS011;53532;53.084;6.352;2023-04-15T08:12:32;14.02;;;8.20;;
66628;SDS011;53532;53.084;6.352;2023-04-15T08:14:58;12.50;;;8.23;;
66628;SDS011;53532;53.084;6.352;2023-04-15T08:17:27;11.65;;;8.25;;
66628;SDS011;53532;53.084;6.352;2023-04-15T08:19:53;10.85;;;7.07;;
66628;SDS011;53532;53.084;6.352;2023-04-15T08:22:20;14.07;;;7.85;;
66628;SDS011;53532;53.084;6.352;2023-04-15T08:24:46;12.50;;;7.65;;
66628;SDS011;53532;53.084;6.352;2023-04-15T08:27:12;12.57;;;7.30;;
66628;SDS011;53532;53.084;6.352;2023-04-15T08:29:38;11.43;;;7.40;;
66628;SDS011;53532;53.084;6.352;2023-04-15T08:32:05;11.70;;;7.63;;
66628;SDS011;53532;53.084;6.352;2023-04-15T08:34:33;12.05;;;7.03;;
66628;SDS011;53532;53.084;6.352;2023-04-15T08:36:59;11.57;;;7.25;;
66628;SDS011;53532;53.084;6.352;2023-04-15T08:39:25;12.70;;;7.38;;
66628;SDS011;53532;53.084;6.352;2023-04-15T08:41:55;10.73;;;6.97;;
66628;SDS011;53532;53.084;6.352;2023-04-15T08:44:22;11.98;;;7.15;;
66628;SDS011;53532;53.084;6.352;2023-04-15T08:46:50;11.90;;;7.40;;
66628;SDS011;53532;53.084;6.352;2023-04-15T08:49:16;11.68;;;7.15;;
66628;SDS011;53532;53.084;6.352;2023-04-15T08:51:44;11.75;;;7.10;;
66628;SDS011;53532;53.084;6.352;2023-04-15T08:54:10;11.90;;;6.85;;
66628;SDS011;53532;53.084;6.352;2023-04-15T08:56:37;10.98;;;6.80;;
66628;SDS011;53532;53.084;6.352;2023-04-15T08:59:03;10.48;;;6.40;;
66628;SDS011;53532;53.084;6.352;2023-04-15T09:01:30;10.77;;;5.85;;
66628;SDS011;53532;53.084;6.352;2023-04-15T09:03:57;12.40;;;5.47;;
66628;SDS011;53532;53.084;6.352;2023-04-15T09:06:23;9.02;;;5.28;;
66628;SDS011;53532;53.084;6.352;2023-04-15T09:08:51;7.82;;;4.32;;
66628;SDS011;53532;53.084;6.352;2023-04-15T09:11:17;9.13;;;4.63;;
66628;SDS011;53532;53.084;6.352;2023-04-15T09:13:44;9.18;;;4.55;;
66628;SDS011;53532;53.084;6.352;2023-04-15T09:16:10;8.35;;;4.60;;
66628;SDS011;53532;53.084;6.352;2023-04-15T09:18:37;8.00;;;4.50;;
66628;SDS011;53532;53.084;6.352;2023-04-15T09:21:04;7.88;;;4.45;;
66628;SDS011;53532;53.084;6.352;2023-04-15T09:23:32;8.60;;;4.60;;
66628;SDS011;53532;53.084;6.352;2023-04-15T09:26:00;9.23;;;4.68;;
66628;SDS011;53532;53.084;6.352;2023-04-15T09:28:26;12.25;;;5.03;;
66628;SDS011;53532;53.084;6.352;2023-04-15T09:30:56;9.60;;;4.32;;
66628;SDS011;53532;53.084;6.352;2023-04-15T09:33:23;10.05;;;4.60;;
66628;SDS011;53532;53.084;6.352;2023-04-15T09:35:57;8.25;;;4.68;;
66628;SDS011;53532;53.084;6.352;2023-04-15T09:38:23;9.13;;;5.00;;
66628;SDS011;53532;53.084;6.352;2023-04-15T09:40:49;9.60;;;4.38;;
66628;SDS011;53532;53.084;6.352;2023-04-15T09:43:17;7.90;;;4.13;;
66628;SDS011;53532;53.084;6.352;2023-04-15T09:45:46;7.47;;;3.92;;
66628;SDS011;53532;53.084;6.352;2023-04-15T09:48:16;9.77;;;3.50;;
66628;SDS011;53532;53.084;6.352;2023-04-15T09:50:43;6.15;;;3.00;;
66628;SDS011;53532;53.084;6.352;2023-04-15T09:53:09;7.90;;;2.95;;
66628;SDS011;53532;53.084;6.352;2023-04-15T09:55:36;6.10;;;2.60;;
66628;SDS011;53532;53.084;6.352;2023-04-15T09:58:07;8.60;;;2.85;;
66628;SDS011;53532;53.084;6.352;2023-04-15T10:00:35;4.82;;;2.42;;
66628;SDS011;53532;53.084;6.352;2023-04-15T10:03:02;5.95;;;2.67;;
66628;SDS011;53532;53.084;6.352;2023-04-15T10:05:31;6.93;;;2.70;;
66628;SDS011;53532;53.084;6.352;2023-04-15T10:07:57;4.60;;;2.05;;
66628;SDS011;53532;53.084;6.352;2023-04-15T10:10:23;5.07;;;2.08;;
66628;SDS011;53532;53.084;6.352;2023-04-15T10:12:50;4.18;;;2.33;;
66628;SDS011;53532;53.084;6.352;2023-04-15T10:15:17;3.75;;;1.88;;
66628;SDS011;53532;53.084;6.352;2023-04-15T10:17:45;4.25;;;1.80;;
66628;SDS011;53532;53.084;6.352;2023-04-15T10:20:12;3.90;;;2.10;;
66628;SDS011;53532;53.084;6.352;2023-04-15T10:22:39;4.22;;;2.00;;
66628;SDS011;53532;53.084;6.352;2023-04-15T10:25:07;4.45;;;1.95;;
66628;SDS011;53532;53.084;6.352;2023-04-15T10:27:33;4.82;;;2.28;;
66628;SDS011;53532;53.084;6.352;2023-04-15T10:30:01;3.70;;;2.03;;
66628;SDS011;53532;53.084;6.352;2023-04-15T10:32:27;3.45;;;2.10;;
66628;SDS011;53532;53.084;6.352;2023-04-15T10:34:56;3.83;;;2.20;;
66628;SDS011;53532;53.084;6.352;2023-04-15T10:37:32;5.10;;;2.28;;
66628;SDS011;53532;53.084;6.352;2023-04-15T10:39:58;4.05;;;2.30;;
66628;SDS011;53532;53.084;6.352;2023-04-15T10:42:24;4.25;;;2.20;;
66628;SDS011;53532;53.084;6.352;2023-04-15T10:44:58;5.05;;;2.30;;
66628;SDS011;53532;53.084;6.352;2023-04-15T10:47:25;6.32;;;2.40;;
66628;SDS011;53532;53.084;6.352;2023-04-15T10:49:51;5.38;;;2.30;;
66628;SDS011;53532;53.084;6.352;2023-04-15T10:52:23;4.88;;;1.98;;
66628;SDS011;53532;53.084;6.352;2023-04-15T10:54:50;5.35;;;2.55;;
66628;SDS011;53532;53.084;6.352;2023-04-15T10:57:27;5.30;;;2.40;;
66628;SDS011;53532;53.084;6.352;2023-04-15T11:00:00;6.18;;;2.33;;
66628;SDS011;53532;53.084;6.352;2023-04-15T11:02:42;5.72;;;2.50;;
66628;SDS011;53532;53.084;6.352;2023-04-15T11:05:08;5.47;;;2.70;;
66628;SDS011;53532;53.084;6.352;2023-04-15T11:07:37;4.72;;;2.40;;
66628;SDS011;53532;53.084;6.352;2023-04-15T11:10:05;5.72;;;2.42;;
66628;SDS011;53532;53.084;6.352;2023-04-15T11:12:50;5.90;;;2.40;;
66628;SDS011;53532;53.084;6.352;2023-04-15T11:15:27;8.65;;;2.75;;
66628;SDS011;53532;53.084;6.352;2023-04-15T11:17:56;6.85;;;2.75;;
66628;SDS011;53532;53.084;6.352;2023-04-15T11:20:22;4.85;;;2.65;;
66628;SDS011;53532;53.084;6.352;2023-04-15T11:22:51;5.80;;;2.50;;
66628;SDS011;53532;53.084;6.352;2023-04-15T11:25:21;7.43;;;2.85;;
66628;SDS011;53532;53.084;6.352;2023-04-15T11:27:47;6.72;;;2.75;;
66628;SDS011;53532;53.084;6.352;2023-04-15T11:30:17;7.22;;;2.72;;
66628;SDS011;53532;53.084;6.352;2023-04-15T11:32:45;8.45;;;2.67;;
66628;SDS011;53532;53.084;6.352;2023-04-15T11:35:11;7.82;;;2.58;;
66628;SDS011;53532;53.084;6.352;2023-04-15T11:37:37;8.60;;;2.70;;
66628;SDS011;53532;53.084;6.352;2023-04-15T11:40:05;8.05;;;2.65;;
66628;SDS011;53532;53.084;6.352;2023-04-15T11:42:32;6.28;;;2.85;;
66628;SDS011;53532;53.084;6.352;2023-04-15T11:45:05;10.15;;;3.53;;
66628;SDS011;53532;53.084;6.352;2023-04-15T11:47:31;11.15;;;3.60;;
66628;SDS011;53532;53.084;6.352;2023-04-15T11:50:05;4.88;;;2.67;;
66628;SDS011;53532;53.084;6.352;2023-04-15T11:52:38;6.97;;;2.63;;
66628;SDS011;53532;53.084;6.352;2023-04-15T11:55:06;5.68;;;2.45;;
66628;SDS011;53532;53.084;6.352;2023-04-15T11:57:33;7.22;;;2.72;;
66628;SDS011;53532;53.084;6.352;2023-04-15T11:59:59;7.55;;;2.78;;
66628;SDS011;53532;53.084;6.352;2023-04-15T12:02:29;6.40;;;2.88;;
66628;SDS011;53532;53.084;6.352;2023-04-15T12:05:01;5.93;;;2.22;;
66628;SDS011;53532;53.084;6.352;2023-04-15T12:07:28;7.32;;;2.38;;
66628;SDS011;53532;53.084;6.352;2023-04-15T12:09:54;8.18;;;2.35;;
66628;SDS011;53532;53.084;6.352;2023-04-15T12:12:22;6.32;;;1.92;;
66628;SDS011;53532;53.084;6.352;2023-04-15T12:14:51;8.10;;;2.05;;
66628;SDS011;53532;53.084;6.352;2023-04-15T12:17:17;4.97;;;2.20;;
66628;SDS011;53532;53.084;6.352;2023-04-15T12:19:43;9.25;;;2.30;;
66628;SDS011;53532;53.084;6.352;2023-04-15T12:22:10;5.15;;;1.95;;
66628;SDS011;53532;53.084;6.352;2023-04-15T12:24:37;7.72;;;2.70;;
66628;SDS011;53532;53.084;6.352;2023-04-15T12:27:03;8.60;;;3.00;;
66628;SDS011;53532;53.084;6.352;2023-04-15T12:29:32;9.68;;;2.75;;
66628;SDS011;53532;53.084;6.352;2023-04-15T12:32:03;9.73;;;3.50;;
66628;SDS011;53532;53.084;6.352;2023-04-15T12:34:30;9.55;;;3.15;;
66628;SDS011;53532;53.084;6.352;2023-04-15T12:36:57;11.48;;;2.97;;
66628;SDS011;53532;53.084;6.352;2023-04-15T12:39:24;8.35;;;2.35;;
66628;SDS011;53532;53.084;6.352;2023-04-15T12:41:51;8.52;;;2.40;;
66628;SDS011;53532;53.084;6.352;2023-04-15T12:44:17;9.30;;;2.40;;
66628;SDS011;53532;53.084;6.352;2023-04-15T12:46:45;7.90;;;2.33;;
66628;SDS011;53532;53.084;6.352;2023-04-15T12:49:11;8.63;;;2.80;;
66628;SDS011;53532;53.084;6.352;2023-04-15T12:54:09;7.25;;;2.33;;
66628;SDS011;53532;53.084;6.352;2023-04-15T12:56:35;8.68;;;2.05;;
66628;SDS011;53532;53.084;6.352;2023-04-15T12:59:02;9.32;;;2.60;;
66628;SDS011;53532;53.084;6.352;2023-04-15T13:01:28;9.15;;;2.50;;
66628;SDS011;53532;53.084;6.352;2023-04-15T13:03:55;8.32;;;2.35;;
66628;SDS011;53532;53.084;6.352;2023-04-15T13:06:22;11.13;;;2.67;;
66628;SDS011;53532;53.084;6.352;2023-04-15T13:08:49;9.43;;;2.50;;
66628;SDS011;53532;53.084;6.352;2023-04-15T13:11:15;8.80;;;2.20;;
66628;SDS011;53532;53.084;6.352;2023-04-15T13:13:41;8.93;;;2.25;;
66628;SDS011;53532;53.084;6.352;2023-04-15T13:16:07;8.95;;;2.75;;
66628;SDS011;53532;53.084;6.352;2023-04-15T13:18:33;10.35;;;2.40;;
66628;SDS011;53532;53.084;6.352;2023-04-15T13:21:01;12.07;;;2.88;;
66628;SDS011;53532;53.084;6.352;2023-04-15T13:23:28;10.40;;;2.47;;
66628;SDS011;53532;53.084;6.352;2023-04-15T13:25:54;8.85;;;2.22;;
66628;SDS011;53532;53.084;6.352;2023-04-15T13:28:21;9.70;;;2.13;;
66628;SDS011;53532;53.084;6.352;2023-04-15T13:30:47;9.00;;;2.35;;
66628;SDS011;53532;53.084;6.352;2023-04-15T13:33:13;12.88;;;2.50;;
66628;SDS011;53532;53.084;6.352;2023-04-15T13:35:39;8.55;;;2.25;;
66628;SDS011;53532;53.084;6.352;2023-04-15T13:38:07;10.85;;;2.88;;
66628;SDS011;53532;53.084;6.352;2023-04-15T13:40:33;8.13;;;2.60;;
66628;SDS011;53532;53.084;6.352;2023-04-15T13:42:59;8.50;;;2.60;;
66628;SDS011;53532;53.084;6.352;2023-04-15T13:45:26;8.68;;;2.50;;
66628;SDS011;53532;53.084;6.352;2023-04-15T13:47:52;10.13;;;2.50;;
66628;SDS011;53532;53.084;6.352;2023-04-15T13:50:18;11.15;;;2.60;;
66628;SDS011;53532;53.084;6.352;2023-04-15T13:52:44;13.60;;;2.78;;
66628;SDS011;53532;53.084;6.352;2023-04-15T13:55:12;8.65;;;2.10;;
66628;SDS011;53532;53.084;6.352;2023-04-15T13:57:38;10.27;;;2.63;;
66628;SDS011;53532;53.084;6.352;2023-04-15T14:00:05;10.60;;;2.42;;
66628;SDS011;53532;53.084;6.352;2023-04-15T14:02:31;8.27;;;2.58;;
66628;SDS011;53532;53.084;6.352;2023-04-15T14:04:58;9.02;;;2.83;;
66628;SDS011;53532;53.084;6.352;2023-04-15T14:07:24;11.15;;;2.90;;
66628;SDS011;53532;53.084;6.352;2023-04-15T14:09:50;10.68;;;2.67;;
66628;SDS011;53532;53.084;6.352;2023-04-15T14:12:18;11.73;;;3.00;;
66628;SDS011;53532;53.084;6.352;2023-04-15T14:14:44;9.43;;;2.45;;
66628;SDS011;53532;53.084;6.352;2023-04-15T14:17:10;11.50;;;2.83;;
66628;SDS011;53532;53.084;6.352;2023-04-15T14:19:36;10.68;;;2.95;;
66628;SDS011;53532;53.084;6.352;2023-04-15T14:22:02;17.00;;;3.60;;
66628;SDS011;53532;53.084;6.352;2023-04-15T14:24:29;9.75;;;2.92;;
66628;SDS011;53532;53.084;6.352;2023-04-15T14:26:55;11.40;;;2.97;;
66628;SDS011;53532;53.084;6.352;2023-04-15T14:29:23;9.35;;;2.40;;
66628;SDS011;53532;53.084;6.352;2023-04-15T14:31:49;10.43;;;3.10;;
66628;SDS011;53532;53.084;6.352;2023-04-15T14:34:15;12.57;;;3.38;;